Airfield :
LOGIN :

Register | Disclaimer

   EN    FR    IT 

 










Legend :    VFR   Marginal VFR   IFR   Intensive IFR   Very Intensive IFR
Visi :
Ceiling :
>= 8 km
>= 3000ft
5 to 8 km
1000 to 3000 ft
1500m to 5 km
500 to 1000 ft
800 to 1500m
200 to 500 ft
< 800m
< 200 ft
Symbols :   Thunderstorms  Fog  Heavy snow  Heavy precipitations  Wind > 20 kt
SIGMETs :     Misc.  Thunderstorms  Icing  Turbulence  Mountain Waves  Volcanic Ashes






- Airport Elevation : 359 ft
- IATA code : BVA


LFOB - Beauvais

CURRENT METAR :
  • 241130Z AUTO 14003KT 110V170 3500 BR OVC004 00/M01 Q1024 BECMG 8000 NSW BKN007

EXPIRED METARs :
  • 241100Z AUTO 13003KT 3400 BR OVC004 00/M01 Q1024 BECMG 8000 NSW BKN007
  • 241030Z AUTO VRB02KT 3400 BR OVC004 M00/M01 Q1023 BECMG 8000 NSW BKN007
  • 241000Z AUTO 11003KT 070V140 3200 BR OVC004 M00/M01 Q1024 BECMG 8000 NSW BKN007
  • 240930Z AUTO VRB03KT 3600 BR OVC004 M00/M01 Q1023 BECMG 8000 NSW BKN007
  • 240900Z AUTO 17004KT 120V190 3800 BR OVC004 M00/M01 Q1023 BECMG 8000 NSW BKN007

TAF TAF LFOB
Valid from the 24 at 06:00 until the 25 at 06:00 UTC


240500Z 2406/2506 07007KT 4000 BR OVC004
BECMG 2408/2411 8000 NSW BKN007
BECMG 2417/2420 4000 BR OVC003
PROB40 2422/2506 0500 FG VV///
ATIS : +33 3 44 11 49 28



MET'MAP, your aeronautical weather chart ! - Copyright ORBIFLY December 2007 - Disclaimer

ORBIFLY MET'MAP TEAM :

Programming & Development : Alexandra Zaïnal
Concept & original design : Baudouin d'Aumeries
Assistance for programming : Marc-Olivier Méhu
Technical & hardware support : Manuel Goepfert

Contact : metmap@orbifly.com




SOURCES & CREDITS :

   NOAA